sensor_id;sensor_type;location;lat;lon;timestamp;pressure;altitude;pressure_sealevel;temperature;humidity
34241;BME280;20503;50.200;19.508;2023-03-03T00:01:30;101845.02;;;-0.12;100.00
34241;BME280;20503;50.200;19.508;2023-03-03T00:06:38;101828.92;;;-0.48;100.00
34241;BME280;20503;50.200;19.508;2023-03-03T00:11:51;101838.60;;;-0.82;100.00
34241;BME280;20503;50.200;19.508;2023-03-03T00:16:56;101828.27;;;-0.88;100.00
34241;BME280;20503;50.200;19.508;2023-03-03T00:22:06;101840.82;;;-0.76;100.00
34241;BME280;20503;50.200;19.508;2023-03-03T00:27:26;101833.61;;;-0.75;100.00
34241;BME280;20503;50.200;19.508;2023-03-03T00:32:51;101826.33;;;-0.86;100.00
34241;BME280;20503;50.200;19.508;2023-03-03T00:37:40;101821.86;;;-0.98;100.00
34241;BME280;20503;50.200;19.508;2023-03-03T00:42:52;101821.63;;;-0.95;100.00
34241;BME280;20503;50.200;19.508;2023-03-03T00:47:55;101813.99;;;-1.01;100.00
34241;BME280;20503;50.200;19.508;2023-03-03T00:53:03;101807.13;;;-1.05;100.00
34241;BME280;20503;50.200;19.508;2023-03-03T00:58:06;101813.46;;;-1.06;100.00
34241;BME280;20503;50.200;19.508;2023-03-03T01:03:11;101818.87;;;-1.18;100.00
34241;BME280;20503;50.200;19.508;2023-03-03T01:08:14;101811.80;;;-1.32;100.00
34241;BME280;20503;50.200;19.508;2023-03-03T01:13:26;101815.64;;;-1.36;100.00
34241;BME280;20503;50.200;19.508;2023-03-03T01:18:31;101821.22;;;-1.39;100.00
34241;BME280;20503;50.200;19.508;2023-03-03T01:23:38;101812.20;;;-1.38;100.00
34241;BME280;20503;50.200;19.508;2023-03-03T01:28:46;101810.71;;;-1.42;100.00
34241;BME280;20503;50.200;19.508;2023-03-03T01:33:53;101775.18;;;-1.58;100.00
34241;BME280;20503;50.200;19.508;2023-03-03T01:39:03;101790.43;;;-1.46;100.00
34241;BME280;20503;50.200;19.508;2023-03-03T01:44:14;101784.50;;;-1.51;100.00
34241;BME280;20503;50.200;19.508;2023-03-03T01:49:42;101787.19;;;-1.63;100.00
34241;BME280;20503;50.200;19.508;2023-03-03T01:54:41;101777.95;;;-1.72;100.00
34241;BME280;20503;50.200;19.508;2023-03-03T01:59:47;101764.10;;;-1.90;100.00
34241;BME280;20503;50.200;19.508;2023-03-03T02:04:53;101787.13;;;-2.00;100.00
34241;BME280;20503;50.200;19.508;2023-03-03T02:10:06;101777.03;;;-2.22;100.00
34241;BME280;20503;50.200;19.508;2023-03-03T02:15:22;101786.63;;;-2.32;100.00
34241;BME280;20503;50.200;19.508;2023-03-03T02:30:57;101791.05;;;-2.18;100.00
34241;BME280;20503;50.200;19.508;2023-03-03T02:36:00;101790.67;;;-2.12;100.00
34241;BME280;20503;50.200;19.508;2023-03-03T02:46:18;101779.29;;;-2.16;100.00
34241;BME280;20503;50.200;19.508;2023-03-03T02:51:21;101773.92;;;-2.16;100.00
34241;BME280;20503;50.200;19.508;2023-03-03T02:56:24;101784.41;;;-2.25;100.00
34241;BME280;20503;50.200;19.508;2023-03-03T03:01:27;101770.86;;;-2.36;100.00
34241;BME280;20503;50.200;19.508;2023-03-03T03:06:37;101776.43;;;-2.39;100.00
34241;BME280;20503;50.200;19.508;2023-03-03T03:11:42;101768.59;;;-2.42;100.00
34241;BME280;20503;50.200;19.508;2023-03-03T03:16:46;101774.17;;;-2.45;100.00
34241;BME280;20503;50.200;19.508;2023-03-03T03:21:48;101771.87;;;-2.51;100.00
34241;BME280;20503;50.200;19.508;2023-03-03T03:26:51;101772.70;;;-2.63;100.00
34241;BME280;20503;50.200;19.508;2023-03-03T03:31:52;101768.48;;;-2.67;100.00
34241;BME280;20503;50.200;19.508;2023-03-03T03:37:00;101774.30;;;-2.61;100.00
34241;BME280;20503;50.200;19.508;2023-03-03T03:42:08;101774.92;;;-2.70;100.00
34241;BME280;20503;50.200;19.508;2023-03-03T03:47:16;101765.23;;;-2.99;100.00
34241;BME280;20503;50.200;19.508;2023-03-03T03:52:24;101762.29;;;-3.08;100.00
34241;BME280;20503;50.200;19.508;2023-03-03T03:57:32;101762.41;;;-2.83;100.00
34241;BME280;20503;50.200;19.508;2023-03-03T04:02:40;101751.15;;;-2.88;100.00
34241;BME280;20503;50.200;19.508;2023-03-03T04:07:48;101753.53;;;-2.84;100.00
34241;BME280;20503;50.200;19.508;2023-03-03T04:12:56;101774.09;;;-2.84;100.00
34241;BME280;20503;50.200;19.508;2023-03-03T04:18:04;101772.30;;;-2.98;100.00
34241;BME280;20503;50.200;19.508;2023-03-03T04:23:12;101783.42;;;-3.04;100.00
34241;BME280;20503;50.200;19.508;2023-03-03T04:28:20;101785.41;;;-2.93;100.00
34241;BME280;20503;50.200;19.508;2023-03-03T04:33:27;101780.42;;;-2.99;100.00
34241;BME280;20503;50.200;19.508;2023-03-03T04:38:35;101772.71;;;-3.04;100.00
34241;BME280;20503;50.200;19.508;2023-03-03T04:43:43;101765.91;;;-2.95;100.00
34241;BME280;20503;50.200;19.508;2023-03-03T04:48:51;101758.24;;;-3.01;100.00
34241;BME280;20503;50.200;19.508;2023-03-03T04:54:00;101770.33;;;-3.08;100.00
34241;BME280;20503;50.200;19.508;2023-03-03T04:59:08;101774.04;;;-3.11;100.00
34241;BME280;20503;50.200;19.508;2023-03-03T05:04:15;101768.63;;;-3.23;100.00
34241;BME280;20503;50.200;19.508;2023-03-03T05:09:23;101775.77;;;-3.24;100.00
34241;BME280;20503;50.200;19.508;2023-03-03T05:14:31;101780.56;;;-3.29;100.00
34241;BME280;20503;50.200;19.508;2023-03-03T05:19:41;101774.25;;;-3.28;100.00
34241;BME280;20503;50.200;19.508;2023-03-03T05:24:46;101784.75;;;-3.25;100.00
34241;BME280;20503;50.200;19.508;2023-03-03T05:29:54;101796.53;;;-3.27;100.00
34241;BME280;20503;50.200;19.508;2023-03-03T05:35:03;101801.21;;;-3.17;100.00
34241;BME280;20503;50.200;19.508;2023-03-03T05:40:11;101801.33;;;-2.78;100.00
34241;BME280;20503;50.200;19.508;2023-03-03T05:45:18;101816.95;;;-2.31;100.00
34241;BME280;20503;50.200;19.508;2023-03-03T05:50:26;101817.33;;;-2.23;100.00
34241;BME280;20503;50.200;19.508;2023-03-03T05:55:34;101825.24;;;-1.95;100.00
34241;BME280;20503;50.200;19.508;2023-03-03T06:00:44;101827.64;;;-1.79;100.00
34241;BME280;20503;50.200;19.508;2023-03-03T06:05:50;101828.84;;;-1.70;100.00
34241;BME280;20503;50.200;19.508;2023-03-03T06:10:57;101838.39;;;-1.41;100.00
34241;BME280;20503;50.200;19.508;2023-03-03T06:16:06;101834.98;;;-1.31;100.00
34241;BME280;20503;50.200;19.508;2023-03-03T06:21:13;101841.00;;;-1.15;100.00
34241;BME280;20503;50.200;19.508;2023-03-03T06:26:22;101840.50;;;-0.84;100.00
34241;BME280;20503;50.200;19.508;2023-03-03T06:31:30;101839.11;;;-0.77;100.00
34241;BME280;20503;50.200;19.508;2023-03-03T06:36:38;101838.24;;;-0.65;100.00
34241;BME280;20503;50.200;19.508;2023-03-03T06:41:49;101843.15;;;-0.59;100.00
34241;BME280;20503;50.200;19.508;2023-03-03T06:46:55;101838.44;;;-0.68;100.00
34241;BME280;20503;50.200;19.508;2023-03-03T06:57:22;101812.13;;;-0.16;100.00
34241;BME280;20503;50.200;19.508;2023-03-03T07:02:25;101825.04;;;0.02;100.00
34241;BME280;20503;50.200;19.508;2023-03-03T07:07:27;101823.20;;;0.37;100.00
34241;BME280;20503;50.200;19.508;2023-03-03T07:12:34;101832.95;;;0.73;100.00
34241;BME280;20503;50.200;19.508;2023-03-03T07:17:45;101827.59;;;0.84;100.00
34241;BME280;20503;50.200;19.508;2023-03-03T07:22:50;101829.68;;;0.91;100.00
34241;BME280;20503;50.200;19.508;2023-03-03T07:28:10;101815.58;;;0.88;100.00
34241;BME280;20503;50.200;19.508;2023-03-03T07:38:23;101829.03;;;1.32;100.00
34241;BME280;20503;50.200;19.508;2023-03-03T07:43:34;101840.80;;;1.31;100.00
34241;BME280;20503;50.200;19.508;2023-03-03T07:48:38;101832.71;;;1.31;100.00
34241;BME280;20503;50.200;19.508;2023-03-03T07:53:41;101818.72;;;1.48;100.00
34241;BME280;20503;50.200;19.508;2023-03-03T07:58:46;101814.66;;;1.64;100.00
34241;BME280;20503;50.200;19.508;2023-03-03T08:03:55;101826.80;;;1.59;100.00
34241;BME280;20503;50.200;19.508;2023-03-03T08:14:18;101852.94;;;1.36;100.00
34241;BME280;20503;50.200;19.508;2023-03-03T08:19:23;101833.22;;;1.14;100.00
34241;BME280;20503;50.200;19.508;2023-03-03T08:24:26;101838.13;;;1.20;100.00
34241;BME280;20503;50.200;19.508;2023-03-03T08:29:33;101835.20;;;1.01;100.00
34241;BME280;20503;50.200;19.508;2023-03-03T08:34:41;101842.67;;;1.08;100.00
34241;BME280;20503;50.200;19.508;2023-03-03T08:39:49;101854.53;;;1.28;100.00
34241;BME280;20503;50.200;19.508;2023-03-03T08:44:57;101854.03;;;1.45;100.00
34241;BME280;20503;50.200;19.508;2023-03-03T08:50:05;101859.17;;;1.48;100.00
34241;BME280;20503;50.200;19.508;2023-03-03T08:55:13;101874.15;;;1.41;100.00
34241;BME280;20503;50.200;19.508;2023-03-03T09:00:21;101875.98;;;1.62;100.00
34241;BME280;20503;50.200;19.508;2023-03-03T09:05:29;101866.28;;;1.60;100.00
34241;BME280;20503;50.200;19.508;2023-03-03T09:10:37;101861.65;;;1.40;100.00
34241;BME280;20503;50.200;19.508;2023-03-03T09:15:46;101856.13;;;0.97;100.00
34241;BME280;20503;50.200;19.508;2023-03-03T09:20:54;101867.02;;;0.85;100.00
34241;BME280;20503;50.200;19.508;2023-03-03T09:31:26;101850.87;;;1.07;100.00
34241;BME280;20503;50.200;19.508;2023-03-03T09:36:35;101850.74;;;0.97;100.00
34241;BME280;20503;50.200;19.508;2023-03-03T09:52:20;101854.30;;;1.20;100.00
34241;BME280;20503;50.200;19.508;2023-03-03T09:57:31;101866.53;;;0.91;100.00
34241;BME280;20503;50.200;19.508;2023-03-03T10:02:42;101881.34;;;0.74;100.00
34241;BME280;20503;50.200;19.508;2023-03-03T10:28:51;101880.10;;;0.89;100.00
34241;BME280;20503;50.200;19.508;2023-03-03T11:00:26;101901.42;;;0.47;100.00
34241;BME280;20503;50.200;19.508;2023-03-03T11:05:34;101901.98;;;0.28;100.00
34241;BME280;20503;50.200;19.508;2023-03-03T11:10:50;101905.97;;;0.46;100.00
34241;BME280;20503;50.200;19.508;2023-03-03T11:36:55;101892.12;;;0.85;100.00
34241;BME280;20503;50.200;19.508;2023-03-03T11:47:24;101879.78;;;1.05;100.00
34241;BME280;20503;50.200;19.508;2023-03-03T11:57:53;101881.61;;;1.04;100.00
34241;BME280;20503;50.200;19.508;2023-03-03T12:03:25;101893.72;;;0.88;100.00
34241;BME280;20503;50.200;19.508;2023-03-03T12:18:52;101871.70;;;1.27;100.00
34241;BME280;20503;50.200;19.508;2023-03-03T12:29:24;101872.93;;;1.23;100.00
34241;BME280;20503;50.200;19.508;2023-03-03T12:45:06;101869.96;;;1.48;100.00
34241;BME280;20503;50.200;19.508;2023-03-03T12:50:22;101866.31;;;1.38;100.00
34241;BME280;20503;50.200;19.508;2023-03-03T13:26:57;101849.16;;;1.17;100.00
34241;BME280;20503;50.200;19.508;2023-03-03T13:32:13;101859.56;;;1.32;100.00
34241;BME280;20503;50.200;19.508;2023-03-03T13:37:26;101848.19;;;1.18;100.00
34241;BME280;20503;50.200;19.508;2023-03-03T14:03:34;101848.06;;;1.08;100.00
34241;BME280;20503;50.200;19.508;2023-03-03T14:14:03;101839.82;;;1.32;100.00
34241;BME280;20503;50.200;19.508;2023-03-03T14:19:16;101835.41;;;1.31;100.00
34241;BME280;20503;50.200;19.508;2023-03-03T14:24:22;101832.10;;;1.05;100.00
34241;BME280;20503;50.200;19.508;2023-03-03T14:29:31;101829.05;;;1.10;100.00
34241;BME280;20503;50.200;19.508;2023-03-03T14:34:38;101835.20;;;1.34;100.00
34241;BME280;20503;50.200;19.508;2023-03-03T14:39:45;101831.27;;;1.05;100.00
34241;BME280;20503;50.200;19.508;2023-03-03T14:44:52;101830.04;;;1.20;100.00
34241;BME280;20503;50.200;19.508;2023-03-03T14:49:57;101835.41;;;1.31;100.00
34241;BME280;20503;50.200;19.508;2023-03-03T14:55:27;101832.48;;;1.12;100.00
34241;BME280;20503;50.200;19.508;2023-03-03T15:00:26;101825.60;;;0.97;100.00
34241;BME280;20503;50.200;19.508;2023-03-03T15:05:30;101815.23;;;0.92;100.00
34241;BME280;20503;50.200;19.508;2023-03-03T15:10:37;101824.17;;;1.04;100.00
34241;BME280;20503;50.200;19.508;2023-03-03T15:16:03;101834.42;;;0.99;100.00
34241;BME280;20503;50.200;19.508;2023-03-03T15:21:04;101823.65;;;0.77;100.00
34241;BME280;20503;50.200;19.508;2023-03-03T15:26:13;101808.60;;;0.74;100.00
34241;BME280;20503;50.200;19.508;2023-03-03T15:31:30;101815.10;;;0.83;100.00
34241;BME280;20503;50.200;19.508;2023-03-03T16:02:59;101806.48;;;0.56;100.00
34241;BME280;20503;50.200;19.508;2023-03-03T16:13:27;101827.30;;;0.54;100.00
34241;BME280;20503;50.200;19.508;2023-03-03T16:18:38;101823.73;;;0.53;100.00
34241;BME280;20503;50.200;19.508;2023-03-03T16:23:49;101827.74;;;0.48;100.00
34241;BME280;20503;50.200;19.508;2023-03-03T16:29:01;101805.09;;;0.39;100.00
34241;BME280;20503;50.200;19.508;2023-03-03T16:34:12;101830.43;;;0.48;100.00
34241;BME280;20503;50.200;19.508;2023-03-03T16:39:27;101832.92;;;0.51;100.00
34241;BME280;20503;50.200;19.508;2023-03-03T16:44:42;101838.77;;;0.45;100.00
34241;BME280;20503;50.200;19.508;2023-03-03T16:49:58;101834.25;;;0.45;100.00
34241;BME280;20503;50.200;19.508;2023-03-03T16:55:12;101842.18;;;0.47;100.00
34241;BME280;20503;50.200;19.508;2023-03-03T17:00:32;101839.28;;;0.50;100.00
34241;BME280;20503;50.200;19.508;2023-03-03T17:10:49;101851.63;;;0.41;100.00
34241;BME280;20503;50.200;19.508;2023-03-03T17:16:01;101840.23;;;0.49;100.00
34241;BME280;20503;50.200;19.508;2023-03-03T17:21:17;101843.45;;;0.54;100.00
34241;BME280;20503;50.200;19.508;2023-03-03T17:26:29;101840.36;;;0.47;100.00
34241;BME280;20503;50.200;19.508;2023-03-03T17:31:41;101848.65;;;0.33;100.00
34241;BME280;20503;50.200;19.508;2023-03-03T17:47:41;101846.83;;;0.34;100.00
34241;BME280;20503;50.200;19.508;2023-03-03T17:52:34;101864.05;;;0.31;100.00
34241;BME280;20503;50.200;19.508;2023-03-03T18:22:49;101868.88;;;0.15;100.00
34241;BME280;20503;50.200;19.508;2023-03-03T18:33:09;101847.74;;;0.22;100.00
34241;BME280;20503;50.200;19.508;2023-03-03T18:38:24;101853.95;;;0.11;100.00
34241;BME280;20503;50.200;19.508;2023-03-03T18:48:48;101854.63;;;0.02;100.00
34241;BME280;20503;50.200;19.508;2023-03-03T18:54:02;101851.83;;;0.04;100.00
34241;BME280;20503;50.200;19.508;2023-03-03T18:59:08;101833.98;;;0.03;100.00
34241;BME280;20503;50.200;19.508;2023-03-03T19:04:18;101831.55;;;0.11;100.00
34241;BME280;20503;50.200;19.508;2023-03-03T19:14:39;101833.10;;;0.02;100.00
34241;BME280;20503;50.200;19.508;2023-03-03T19:51:14;101830.72;;;-0.13;100.00
34241;BME280;20503;50.200;19.508;2023-03-03T20:01:45;101830.72;;;-0.13;100.00
34241;BME280;20503;50.200;19.508;2023-03-03T20:27:54;101816.74;;;-0.18;100.00
34241;BME280;20503;50.200;19.508;2023-03-03T20:33:11;101824.80;;;-0.18;100.00
34241;BME280;20503;50.200;19.508;2023-03-03T21:04:25;101802.11;;;-0.14;100.00
34241;BME280;20503;50.200;19.508;2023-03-03T21:09:36;101802.61;;;-0.09;100.00
34241;BME280;20503;50.200;19.508;2023-03-03T21:14:38;101788.13;;;-0.19;100.00
34241;BME280;20503;50.200;19.508;2023-03-03T21:19:42;101794.48;;;-0.20;100.00
34241;BME280;20503;50.200;19.508;2023-03-03T21:30:10;101775.38;;;-0.28;100.00
34241;BME280;20503;50.200;19.508;2023-03-03T21:35:16;101778.08;;;-0.28;100.00
34241;BME280;20503;50.200;19.508;2023-03-03T21:40:25;101763.99;;;-0.31;100.00
34241;BME280;20503;50.200;19.508;2023-03-03T21:45:28;101763.52;;;-0.25;100.00
34241;BME280;20503;50.200;19.508;2023-03-03T21:50:30;101759.98;;;-0.26;100.00
34241;BME280;20503;50.200;19.508;2023-03-03T21:55:35;101759.89;;;-0.24;100.00
34241;BME280;20503;50.200;19.508;2023-03-03T22:00:37;101753.48;;;-0.34;100.00
34241;BME280;20503;50.200;19.508;2023-03-03T22:05:40;101742.88;;;-0.25;100.00
34241;BME280;20503;50.200;19.508;2023-03-03T22:10:42;101735.14;;;-0.29;100.00
34241;BME280;20503;50.200;19.508;2023-03-03T22:15:47;101730.59;;;-0.40;100.00
34241;BME280;20503;50.200;19.508;2023-03-03T22:20:48;101703.95;;;-0.43;100.00
34241;BME280;20503;50.200;19.508;2023-03-03T22:25:51;101708.98;;;-0.38;100.00
34241;BME280;20503;50.200;19.508;2023-03-03T22:30:55;101710.69;;;-0.37;100.00
34241;BME280;20503;50.200;19.508;2023-03-03T22:35:57;101694.55;;;-0.37;100.00
34241;BME280;20503;50.200;19.508;2023-03-03T22:40:59;101706.29;;;-0.38;100.00
34241;BME280;20503;50.200;19.508;2023-03-03T22:46:01;101696.62;;;-0.41;100.00
34241;BME280;20503;50.200;19.508;2023-03-03T22:51:03;101694.40;;;-0.47;100.00
34241;BME280;20503;50.200;19.508;2023-03-03T22:56:06;101704.68;;;-0.41;100.00
34241;BME280;20503;50.200;19.508;2023-03-03T23:01:08;101699.77;;;-0.47;100.00
34241;BME280;20503;50.200;19.508;2023-03-03T23:06:10;101691.23;;;-0.41;100.00
34241;BME280;20503;50.200;19.508;2023-03-03T23:11:13;101677.80;;;-0.41;100.00
34241;BME280;20503;50.200;19.508;2023-03-03T23:16:15;101670.41;;;-0.50;100.00
34241;BME280;20503;50.200;19.508;2023-03-03T23:21:18;101662.15;;;-0.47;100.00
34241;BME280;20503;50.200;19.508;2023-03-03T23:26:20;101652.36;;;-0.48;100.00
34241;BME280;20503;50.200;19.508;2023-03-03T23:31:23;101655.05;;;-0.48;100.00
34241;BME280;20503;50.200;19.508;2023-03-03T23:36:26;101655.40;;;-0.52;100.00
34241;BME280;20503;50.200;19.508;2023-03-03T23:41:28;101644.51;;;-0.51;100.00
34241;BME280;20503;50.200;19.508;2023-03-03T23:46:30;101642.95;;;-0.42;100.00
34241;BME280;20503;50.200;19.508;2023-03-03T23:51:33;101639.41;;;-0.43;100.00
34241;BME280;20503;50.200;19.508;2023-03-03T23:56:35;101633.80;;;-0.40;100.00
